sensor_id;sensor_type;location;lat;lon;timestamp;pressure;altitude;pressure_sealevel;temperature;humidity
48790;BME280;41718;51.980;5.734;2023-04-30T00:00:14;102205.75;;;5.57;100.00
48790;BME280;41718;51.980;5.734;2023-04-30T00:05:16;102220.63;;;5.48;100.00
48790;BME280;41718;51.980;5.734;2023-04-30T00:10:17;102223.28;;;5.35;100.00
48790;BME280;41718;51.980;5.734;2023-04-30T00:15:19;102228.03;;;5.14;100.00
48790;BME280;41718;51.980;5.734;2023-04-30T00:20:20;102229.16;;;5.04;100.00
48790;BME280;41718;51.980;5.734;2023-04-30T00:25:22;102224.03;;;4.90;100.00
48790;BME280;41718;51.980;5.734;2023-04-30T00:30:24;102228.06;;;4.86;100.00
48790;BME280;41718;51.980;5.734;2023-04-30T00:35:26;102238.66;;;4.77;100.00
48790;BME280;41718;51.980;5.734;2023-04-30T00:40:27;102225.63;;;4.60;100.00
48790;BME280;41718;51.980;5.734;2023-04-30T00:45:29;102235.28;;;4.50;100.00
48790;BME280;41718;51.980;5.734;2023-04-30T00:50:31;102242.41;;;4.41;100.00
48790;BME280;41718;51.980;5.734;2023-04-30T00:55:32;102244.06;;;4.41;100.00
48790;BME280;41718;51.980;5.734;2023-04-30T01:00:34;102240.16;;;4.33;100.00
48790;BME280;41718;51.980;5.734;2023-04-30T01:05:36;102235.13;;;4.34;100.00
48790;BME280;41718;51.980;5.734;2023-04-30T01:10:45;102243.03;;;4.37;100.00
48790;BME280;41718;51.980;5.734;2023-04-30T01:21:04;102247.59;;;4.15;100.00
48790;BME280;41718;51.980;5.734;2023-04-30T01:26:12;102240.28;;;4.08;100.00
48790;BME280;41718;51.980;5.734;2023-04-30T01:31:17;102232.72;;;4.09;100.00
48790;BME280;41718;51.980;5.734;2023-04-30T01:58:00;102240.00;;;3.77;100.00
48790;BME280;41718;51.980;5.734;2023-04-30T02:03:03;102255.84;;;3.71;100.00
48790;BME280;41718;51.980;5.734;2023-04-30T02:08:05;102242.66;;;3.78;100.00
48790;BME280;41718;51.980;5.734;2023-04-30T02:13:07;102241.47;;;3.73;100.00
48790;BME280;41718;51.980;5.734;2023-04-30T02:18:08;102253.19;;;3.83;100.00
48790;BME280;41718;51.980;5.734;2023-04-30T02:23:09;102251.34;;;3.80;100.00
48790;BME280;41718;51.980;5.734;2023-04-30T02:28:11;102252.72;;;3.75;100.00
48790;BME280;41718;51.980;5.734;2023-04-30T02:33:12;102256.63;;;3.70;100.00
48790;BME280;41718;51.980;5.734;2023-04-30T02:38:14;102255.13;;;3.60;100.00
48790;BME280;41718;51.980;5.734;2023-04-30T02:43:16;102258.41;;;3.58;100.00
48790;BME280;41718;51.980;5.734;2023-04-30T02:48:17;102255.94;;;3.59;100.00
48790;BME280;41718;51.980;5.734;2023-04-30T02:53:18;102248.03;;;3.43;100.00
48790;BME280;41718;51.980;5.734;2023-04-30T02:58:20;102241.63;;;3.50;100.00
48790;BME280;41718;51.980;5.734;2023-04-30T03:03:22;102241.06;;;3.40;100.00
48790;BME280;41718;51.980;5.734;2023-04-30T03:08:26;102242.97;;;3.18;100.00
48790;BME280;41718;51.980;5.734;2023-04-30T03:13:28;102246.59;;;3.22;100.00
48790;BME280;41718;51.980;5.734;2023-04-30T03:18:29;102250.97;;;3.11;100.00
48790;BME280;41718;51.980;5.734;2023-04-30T03:23:31;102244.25;;;3.00;100.00
48790;BME280;41718;51.980;5.734;2023-04-30T03:28:33;102248.16;;;2.95;100.00
48790;BME280;41718;51.980;5.734;2023-04-30T03:33:34;102245.13;;;3.00;100.00
48790;BME280;41718;51.980;5.734;2023-04-30T03:38:36;102244.06;;;2.97;100.00
48790;BME280;41718;51.980;5.734;2023-04-30T03:43:38;102241.88;;;2.89;100.00
48790;BME280;41718;51.980;5.734;2023-04-30T03:48:39;102235.84;;;2.89;100.00
48790;BME280;41718;51.980;5.734;2023-04-30T03:53:41;102238.22;;;2.86;100.00
48790;BME280;41718;51.980;5.734;2023-04-30T03:58:42;102237.56;;;2.77;100.00
48790;BME280;41718;51.980;5.734;2023-04-30T04:03:44;102239.28;;;2.64;100.00
48790;BME280;41718;51.980;5.734;2023-04-30T04:08:45;102232.88;;;2.58;100.00
48790;BME280;41718;51.980;5.734;2023-04-30T04:13:47;102230.88;;;2.54;100.00
48790;BME280;41718;51.980;5.734;2023-04-30T04:18:48;102235.41;;;2.58;100.00
48790;BME280;41718;51.980;5.734;2023-04-30T04:23:50;102240.50;;;2.70;100.00
48790;BME280;41718;51.980;5.734;2023-04-30T04:28:51;102249.50;;;2.64;100.00
48790;BME280;41718;51.980;5.734;2023-04-30T04:33:53;102251.25;;;2.65;100.00
48790;BME280;41718;51.980;5.734;2023-04-30T04:38:59;102253.53;;;2.61;100.00
48790;BME280;41718;51.980;5.734;2023-04-30T04:44:04;102247.94;;;2.66;100.00
48790;BME280;41718;51.980;5.734;2023-04-30T04:49:05;102254.78;;;2.79;100.00
48790;BME280;41718;51.980;5.734;2023-04-30T04:54:07;102248.94;;;2.93;100.00
48790;BME280;41718;51.980;5.734;2023-04-30T04:59:08;102250.88;;;3.09;100.00
48790;BME280;41718;51.980;5.734;2023-04-30T05:04:10;102255.63;;;3.16;100.00
48790;BME280;41718;51.980;5.734;2023-04-30T05:09:14;102254.41;;;3.36;100.00
48790;BME280;41718;51.980;5.734;2023-04-30T05:14:15;102244.97;;;3.49;100.00
48790;BME280;41718;51.980;5.734;2023-04-30T05:19:17;102247.59;;;3.75;100.00
48790;BME280;41718;51.980;5.734;2023-04-30T05:24:18;102254.16;;;3.85;100.00
48790;BME280;41718;51.980;5.734;2023-04-30T05:29:20;102249.53;;;4.06;100.00
48790;BME280;41718;51.980;5.734;2023-04-30T05:34:21;102256.72;;;4.38;100.00
48790;BME280;41718;51.980;5.734;2023-04-30T05:39:23;102256.03;;;4.68;100.00
48790;BME280;41718;51.980;5.734;2023-04-30T05:44:24;102255.31;;;4.99;100.00
48790;BME280;41718;51.980;5.734;2023-04-30T05:49:26;102251.84;;;5.26;100.00
48790;BME280;41718;51.980;5.734;2023-04-30T05:54:28;102245.78;;;5.69;100.00
48790;BME280;41718;51.980;5.734;2023-04-30T05:59:30;102253.34;;;6.11;100.00
48790;BME280;41718;51.980;5.734;2023-04-30T06:04:31;102259.75;;;6.98;100.00
48790;BME280;41718;51.980;5.734;2023-04-30T06:09:33;102258.22;;;7.52;100.00
48790;BME280;41718;51.980;5.734;2023-04-30T06:14:35;102258.41;;;7.91;100.00
48790;BME280;41718;51.980;5.734;2023-04-30T06:19:36;102259.44;;;8.12;100.00
48790;BME280;41718;51.980;5.734;2023-04-30T06:24:39;102273.75;;;8.41;100.00
48790;BME280;41718;51.980;5.734;2023-04-30T06:29:40;102270.03;;;8.73;100.00
48790;BME280;41718;51.980;5.734;2023-04-30T06:34:41;102271.66;;;9.29;100.00
48790;BME280;41718;51.980;5.734;2023-04-30T06:39:43;102254.72;;;9.15;100.00
48790;BME280;41718;51.980;5.734;2023-04-30T06:44:45;102242.00;;;9.41;100.00
48790;BME280;41718;51.980;5.734;2023-04-30T06:49:47;102228.47;;;9.46;100.00
48790;BME280;41718;51.980;5.734;2023-04-30T06:54:51;102219.75;;;10.07;100.00
48790;BME280;41718;51.980;5.734;2023-04-30T06:59:53;102213.78;;;10.09;100.00
48790;BME280;41718;51.980;5.734;2023-04-30T07:04:54;102198.38;;;10.11;100.00
48790;BME280;41718;51.980;5.734;2023-04-30T07:09:56;102197.38;;;10.30;100.00
48790;BME280;41718;51.980;5.734;2023-04-30T07:14:58;102193.41;;;10.38;100.00
48790;BME280;41718;51.980;5.734;2023-04-30T07:20:02;102183.59;;;10.77;100.00
48790;BME280;41718;51.980;5.734;2023-04-30T07:25:05;102173.66;;;11.13;100.00
48790;BME280;41718;51.980;5.734;2023-04-30T07:30:07;102173.19;;;11.25;100.00
48790;BME280;41718;51.980;5.734;2023-04-30T07:35:12;102177.75;;;11.07;100.00
48790;BME280;41718;51.980;5.734;2023-04-30T07:40:14;102175.94;;;11.06;100.00
48790;BME280;41718;51.980;5.734;2023-04-30T07:45:34;102164.97;;;11.65;100.00
48790;BME280;41718;51.980;5.734;2023-04-30T07:50:36;102176.06;;;11.61;100.00
48790;BME280;41718;51.980;5.734;2023-04-30T07:55:38;102172.47;;;12.10;100.00
48790;BME280;41718;51.980;5.734;2023-04-30T08:00:39;102178.13;;;11.97;100.00
48790;BME280;41718;51.980;5.734;2023-04-30T08:05:41;102172.91;;;12.56;100.00
48790;BME280;41718;51.980;5.734;2023-04-30T08:10:42;102168.69;;;12.59;100.00
48790;BME280;41718;51.980;5.734;2023-04-30T08:15:44;102172.00;;;12.54;100.00
48790;BME280;41718;51.980;5.734;2023-04-30T08:20:46;102166.47;;;12.73;100.00
48790;BME280;41718;51.980;5.734;2023-04-30T08:25:48;102166.50;;;13.06;100.00
48790;BME280;41718;51.980;5.734;2023-04-30T08:30:50;102168.56;;;12.86;100.00
48790;BME280;41718;51.980;5.734;2023-04-30T08:35:51;102160.75;;;13.52;100.00
48790;BME280;41718;51.980;5.734;2023-04-30T08:41:05;102161.28;;;12.73;100.00
48790;BME280;41718;51.980;5.734;2023-04-30T08:46:10;102154.41;;;13.41;100.00
48790;BME280;41718;51.980;5.734;2023-04-30T08:51:13;102145.19;;;13.56;100.00
48790;BME280;41718;51.980;5.734;2023-04-30T08:56:15;102149.38;;;13.49;100.00
48790;BME280;41718;51.980;5.734;2023-04-30T09:01:17;102142.31;;;14.19;100.00
48790;BME280;41718;51.980;5.734;2023-04-30T09:06:18;102144.16;;;14.24;100.00
48790;BME280;41718;51.980;5.734;2023-04-30T09:16:26;102138.69;;;15.01;100.00
48790;BME280;41718;51.980;5.734;2023-04-30T09:21:35;102135.22;;;14.54;100.00
48790;BME280;41718;51.980;5.734;2023-04-30T09:26:37;102123.69;;;14.43;100.00
48790;BME280;41718;51.980;5.734;2023-04-30T09:31:42;102122.00;;;14.90;100.00
48790;BME280;41718;51.980;5.734;2023-04-30T09:36:52;102130.25;;;15.15;100.00
48790;BME280;41718;51.980;5.734;2023-04-30T09:42:07;102124.34;;;15.81;100.00
48790;BME280;41718;51.980;5.734;2023-04-30T09:47:13;102141.59;;;15.20;100.00
48790;BME280;41718;51.980;5.734;2023-04-30T09:52:15;102141.00;;;15.36;100.00
48790;BME280;41718;51.980;5.734;2023-04-30T09:57:20;102132.16;;;15.81;100.00
48790;BME280;41718;51.980;5.734;2023-04-30T10:02:23;102126.00;;;15.76;100.00
48790;BME280;41718;51.980;5.734;2023-04-30T10:07:30;102128.13;;;16.03;100.00
48790;BME280;41718;51.980;5.734;2023-04-30T10:12:42;102130.53;;;16.59;100.00
48790;BME280;41718;51.980;5.734;2023-04-30T10:18:18;102135.38;;;16.25;100.00
48790;BME280;41718;51.980;5.734;2023-04-30T10:23:20;102147.38;;;16.84;100.00
48790;BME280;41718;51.980;5.734;2023-04-30T10:28:22;102151.75;;;16.15;100.00
48790;BME280;41718;51.980;5.734;2023-04-30T10:34:31;102149.97;;;16.79;100.00
48790;BME280;41718;51.980;5.734;2023-04-30T10:39:02;102154.22;;;17.71;100.00
48790;BME280;41718;51.980;5.734;2023-04-30T10:44:06;102151.25;;;17.27;100.00
48790;BME280;41718;51.980;5.734;2023-04-30T10:49:08;102155.84;;;16.64;100.00
48790;BME280;41718;51.980;5.734;2023-04-30T10:54:14;102146.38;;;17.74;100.00
48790;BME280;41718;51.980;5.734;2023-04-30T10:59:17;102130.19;;;17.10;100.00
48790;BME280;41718;51.980;5.734;2023-04-30T11:04:20;102111.84;;;18.55;100.00
48790;BME280;41718;51.980;5.734;2023-04-30T11:09:35;102112.44;;;17.91;100.00
48790;BME280;41718;51.980;5.734;2023-04-30T11:14:42;102112.53;;;18.07;100.00
48790;BME280;41718;51.980;5.734;2023-04-30T11:19:49;102111.41;;;17.69;100.00
48790;BME280;41718;51.980;5.734;2023-04-30T11:25:10;102103.06;;;18.53;100.00
48790;BME280;41718;51.980;5.734;2023-04-30T11:30:15;102100.16;;;17.72;100.00
48790;BME280;41718;51.980;5.734;2023-04-30T11:35:17;102094.75;;;17.47;100.00
48790;BME280;41718;51.980;5.734;2023-04-30T11:40:21;102081.03;;;17.88;100.00
48790;BME280;41718;51.980;5.734;2023-04-30T11:45:23;102074.84;;;17.72;100.00
48790;BME280;41718;51.980;5.734;2023-04-30T11:50:31;102072.38;;;18.08;100.00
48790;BME280;41718;51.980;5.734;2023-04-30T11:55:33;102057.69;;;18.92;100.00
48790;BME280;41718;51.980;5.734;2023-04-30T12:00:34;102054.16;;;18.66;100.00
48790;BME280;41718;51.980;5.734;2023-04-30T12:05:39;102053.31;;;19.20;100.00
48790;BME280;41718;51.980;5.734;2023-04-30T12:10:41;102047.22;;;19.03;100.00
48790;BME280;41718;51.980;5.734;2023-04-30T12:15:56;102043.63;;;19.45;100.00
48790;BME280;41718;51.980;5.734;2023-04-30T12:20:58;102040.22;;;18.90;100.00
48790;BME280;41718;51.980;5.734;2023-04-30T12:26:00;102026.22;;;19.09;100.00
48790;BME280;41718;51.980;5.734;2023-04-30T12:31:01;102028.84;;;19.09;100.00
48790;BME280;41718;51.980;5.734;2023-04-30T12:36:09;102012.16;;;19.39;100.00
48790;BME280;41718;51.980;5.734;2023-04-30T12:41:15;102020.97;;;18.71;100.00
48790;BME280;41718;51.980;5.734;2023-04-30T12:46:25;102008.72;;;18.65;100.00
48790;BME280;41718;51.980;5.734;2023-04-30T12:51:27;102001.63;;;19.59;100.00
48790;BME280;41718;51.980;5.734;2023-04-30T12:56:29;101986.88;;;18.66;99.16
48790;BME280;41718;51.980;5.734;2023-04-30T13:01:31;101990.34;;;19.10;99.79
48790;BME280;41718;51.980;5.734;2023-04-30T13:06:33;101986.88;;;18.33;99.53
48790;BME280;41718;51.980;5.734;2023-04-30T13:11:35;101980.78;;;18.55;100.00
48790;BME280;41718;51.980;5.734;2023-04-30T13:16:37;101992.84;;;17.78;100.00
48790;BME280;41718;51.980;5.734;2023-04-30T13:21:40;101981.50;;;17.85;99.43
48790;BME280;41718;51.980;5.734;2023-04-30T13:26:42;101979.78;;;17.87;99.39
48790;BME280;41718;51.980;5.734;2023-04-30T13:31:43;101978.69;;;17.36;99.53
48790;BME280;41718;51.980;5.734;2023-04-30T13:36:46;101966.75;;;18.12;99.47
48790;BME280;41718;51.980;5.734;2023-04-30T13:41:47;101970.06;;;17.66;100.00
48790;BME280;41718;51.980;5.734;2023-04-30T13:46:49;101970.16;;;17.80;100.00
48790;BME280;41718;51.980;5.734;2023-04-30T13:51:51;101967.31;;;17.34;100.00
48790;BME280;41718;51.980;5.734;2023-04-30T13:56:52;101953.63;;;17.93;100.00
48790;BME280;41718;51.980;5.734;2023-04-30T14:01:54;101954.38;;;17.69;100.00
48790;BME280;41718;51.980;5.734;2023-04-30T14:06:55;101935.31;;;18.22;100.00
48790;BME280;41718;51.980;5.734;2023-04-30T14:11:57;101939.66;;;18.02;100.00
48790;BME280;41718;51.980;5.734;2023-04-30T14:16:59;101937.91;;;18.07;100.00
48790;BME280;41718;51.980;5.734;2023-04-30T14:22:01;101930.06;;;17.99;100.00
48790;BME280;41718;51.980;5.734;2023-04-30T14:27:02;101926.50;;;17.81;100.00
48790;BME280;41718;51.980;5.734;2023-04-30T14:32:05;101924.81;;;18.01;100.00
48790;BME280;41718;51.980;5.734;2023-04-30T14:37:07;101928.13;;;17.45;100.00
48790;BME280;41718;51.980;5.734;2023-04-30T14:42:09;101925.44;;;17.28;100.00
48790;BME280;41718;51.980;5.734;2023-04-30T14:47:10;101925.28;;;16.98;100.00
48790;BME280;41718;51.980;5.734;2023-04-30T14:52:13;101918.34;;;17.06;100.00
48790;BME280;41718;51.980;5.734;2023-04-30T14:57:16;101913.09;;;17.07;100.00
48790;BME280;41718;51.980;5.734;2023-04-30T15:02:17;101922.75;;;17.14;100.00
48790;BME280;41718;51.980;5.734;2023-04-30T15:07:19;101911.09;;;16.63;100.00
48790;BME280;41718;51.980;5.734;2023-04-30T15:12:21;101914.56;;;16.64;100.00
48790;BME280;41718;51.980;5.734;2023-04-30T15:17:23;101909.19;;;16.44;100.00
48790;BME280;41718;51.980;5.734;2023-04-30T15:22:24;101899.03;;;16.81;100.00
48790;BME280;41718;51.980;5.734;2023-04-30T15:27:26;101901.69;;;16.88;100.00
48790;BME280;41718;51.980;5.734;2023-04-30T15:32:28;101894.03;;;17.19;100.00
48790;BME280;41718;51.980;5.734;2023-04-30T15:37:30;101890.38;;;16.92;100.00
48790;BME280;41718;51.980;5.734;2023-04-30T15:42:32;101886.72;;;16.69;100.00
48790;BME280;41718;51.980;5.734;2023-04-30T15:47:33;101882.66;;;17.18;100.00
48790;BME280;41718;51.980;5.734;2023-04-30T15:52:35;101873.09;;;17.23;100.00
48790;BME280;41718;51.980;5.734;2023-04-30T15:57:40;101874.78;;;17.11;100.00
48790;BME280;41718;51.980;5.734;2023-04-30T16:02:41;101877.25;;;16.82;100.00
48790;BME280;41718;51.980;5.734;2023-04-30T16:07:43;101872.53;;;16.32;100.00
48790;BME280;41718;51.980;5.734;2023-04-30T16:12:46;101858.41;;;16.05;100.00
48790;BME280;41718;51.980;5.734;2023-04-30T16:17:47;101856.06;;;16.42;100.00
48790;BME280;41718;51.980;5.734;2023-04-30T16:22:49;101842.16;;;16.46;100.00
48790;BME280;41718;51.980;5.734;2023-04-30T16:27:51;101832.63;;;16.54;100.00
48790;BME280;41718;51.980;5.734;2023-04-30T16:32:53;101832.66;;;16.57;100.00
48790;BME280;41718;51.980;5.734;2023-04-30T16:37:54;101828.44;;;16.78;100.00
48790;BME280;41718;51.980;5.734;2023-04-30T16:42:56;101822.28;;;16.68;100.00
48790;BME280;41718;51.980;5.734;2023-04-30T16:47:59;101830.00;;;16.51;100.00
48790;BME280;41718;51.980;5.734;2023-04-30T16:53:01;101831.38;;;16.03;100.00
48790;BME280;41718;51.980;5.734;2023-04-30T16:58:03;101827.81;;;15.94;100.00
48790;BME280;41718;51.980;5.734;2023-04-30T17:03:04;101826.13;;;15.99;100.00
48790;BME280;41718;51.980;5.734;2023-04-30T17:08:06;101825.44;;;16.21;100.00
48790;BME280;41718;51.980;5.734;2023-04-30T17:13:08;101810.63;;;16.17;100.00
48790;BME280;41718;51.980;5.734;2023-04-30T17:18:12;101805.31;;;16.06;100.00
48790;BME280;41718;51.980;5.734;2023-04-30T17:23:15;101810.50;;;16.05;100.00
48790;BME280;41718;51.980;5.734;2023-04-30T17:28:16;101804.66;;;16.36;100.00
48790;BME280;41718;51.980;5.734;2023-04-30T17:33:19;101798.56;;;16.37;100.00
48790;BME280;41718;51.980;5.734;2023-04-30T17:38:21;101796.84;;;16.44;100.00
48790;BME280;41718;51.980;5.734;2023-04-30T17:43:23;101800.16;;;16.15;100.00
48790;BME280;41718;51.980;5.734;2023-04-30T17:48:24;101813.13;;;16.05;100.00
48790;BME280;41718;51.980;5.734;2023-04-30T17:53:26;101806.25;;;16.14;100.00
48790;BME280;41718;51.980;5.734;2023-04-30T17:58:27;101808.66;;;15.90;100.00
48790;BME280;41718;51.980;5.734;2023-04-30T18:03:30;101805.72;;;15.56;100.00
48790;BME280;41718;51.980;5.734;2023-04-30T18:08:32;101800.34;;;15.43;100.00
48790;BME280;41718;51.980;5.734;2023-04-30T18:13:34;101799.28;;;15.24;100.00
48790;BME280;41718;51.980;5.734;2023-04-30T18:18:37;101790.59;;;15.23;100.00
48790;BME280;41718;51.980;5.734;2023-04-30T18:23:38;101799.13;;;15.10;100.00
48790;BME280;41718;51.980;5.734;2023-04-30T18:28:40;101792.91;;;14.99;100.00
48790;BME280;41718;51.980;5.734;2023-04-30T18:33:42;101797.16;;;14.91;100.00
48790;BME280;41718;51.980;5.734;2023-04-30T18:38:44;101791.69;;;14.71;100.00
48790;BME280;41718;51.980;5.734;2023-04-30T18:43:46;101786.28;;;14.57;100.00
48790;BME280;41718;51.980;5.734;2023-04-30T18:48:47;101782.72;;;14.50;100.00
48790;BME280;41718;51.980;5.734;2023-04-30T18:53:49;101786.63;;;14.21;100.00
48790;BME280;41718;51.980;5.734;2023-04-30T18:58:50;101782.22;;;14.17;100.00
48790;BME280;41718;51.980;5.734;2023-04-30T19:03:52;101782.50;;;13.81;100.00
48790;BME280;41718;51.980;5.734;2023-04-30T19:08:53;101776.13;;;13.62;100.00
48790;BME280;41718;51.980;5.734;2023-04-30T19:13:56;101766.25;;;13.44;100.00
48790;BME280;41718;51.980;5.734;2023-04-30T19:19:01;101768.84;;;13.42;100.00
48790;BME280;41718;51.980;5.734;2023-04-30T19:24:03;101763.63;;;12.98;100.00
48790;BME280;41718;51.980;5.734;2023-04-30T19:29:05;101758.09;;;12.82;100.00
48790;BME280;41718;51.980;5.734;2023-04-30T19:34:07;101754.28;;;12.64;100.00
48790;BME280;41718;51.980;5.734;2023-04-30T19:39:09;101752.81;;;12.36;100.00
48790;BME280;41718;51.980;5.734;2023-04-30T19:44:12;101756.84;;;12.24;100.00
48790;BME280;41718;51.980;5.734;2023-04-30T19:49:14;101759.03;;;12.05;100.00
48790;BME280;41718;51.980;5.734;2023-04-30T19:54:16;101743.97;;;11.90;100.00
48790;BME280;41718;51.980;5.734;2023-04-30T19:59:22;101742.81;;;11.79;100.00
48790;BME280;41718;51.980;5.734;2023-04-30T20:04:25;101741.25;;;11.51;100.00
48790;BME280;41718;51.980;5.734;2023-04-30T20:09:32;101730.72;;;11.45;100.00
48790;BME280;41718;51.980;5.734;2023-04-30T20:14:33;101735.38;;;11.24;100.00
48790;BME280;41718;51.980;5.734;2023-04-30T20:19:35;101730.50;;;11.04;100.00
48790;BME280;41718;51.980;5.734;2023-04-30T20:24:38;101724.19;;;10.95;100.00
48790;BME280;41718;51.980;5.734;2023-04-30T20:29:44;101732.25;;;10.74;100.00
48790;BME280;41718;51.980;5.734;2023-04-30T20:34:46;101733.63;;;10.61;100.00
48790;BME280;41718;51.980;5.734;2023-04-30T20:39:49;101730.44;;;10.41;100.00
48790;BME280;41718;51.980;5.734;2023-04-30T20:44:52;101722.53;;;10.37;100.00
48790;BME280;41718;51.980;5.734;2023-04-30T20:49:57;101736.03;;;10.26;100.00
48790;BME280;41718;51.980;5.734;2023-04-30T20:54:59;101721.91;;;10.17;100.00
48790;BME280;41718;51.980;5.734;2023-04-30T21:00:02;101721.66;;;10.09;100.00
48790;BME280;41718;51.980;5.734;2023-04-30T21:05:05;101717.63;;;9.90;100.00
48790;BME280;41718;51.980;5.734;2023-04-30T21:10:07;101718.09;;;9.77;100.00
48790;BME280;41718;51.980;5.734;2023-04-30T21:15:09;101706.88;;;9.76;100.00
48790;BME280;41718;51.980;5.734;2023-04-30T21:20:11;101712.84;;;9.75;100.00
48790;BME280;41718;51.980;5.734;2023-04-30T21:25:13;101706.38;;;9.61;100.00
48790;BME280;41718;51.980;5.734;2023-04-30T21:30:14;101714.47;;;9.46;100.00
48790;BME280;41718;51.980;5.734;2023-04-30T21:35:17;101708.25;;;9.40;100.00
48790;BME280;41718;51.980;5.734;2023-04-30T21:40:18;101712.19;;;9.30;100.00
48790;BME280;41718;51.980;5.734;2023-04-30T21:45:20;101707.50;;;9.18;100.00
48790;BME280;41718;51.980;5.734;2023-04-30T21:50:22;101705.03;;;9.21;100.00
48790;BME280;41718;51.980;5.734;2023-04-30T21:55:24;101703.09;;;9.14;100.00
48790;BME280;41718;51.980;5.734;2023-04-30T22:00:26;101694.38;;;9.12;100.00
48790;BME280;41718;51.980;5.734;2023-04-30T22:05:28;101702.41;;;8.96;100.00
48790;BME280;41718;51.980;5.734;2023-04-30T22:10:30;101695.41;;;8.92;100.00
48790;BME280;41718;51.980;5.734;2023-04-30T22:15:31;101691.66;;;8.84;100.00
48790;BME280;41718;51.980;5.734;2023-04-30T22:20:49;101688.63;;;8.70;100.00
48790;BME280;41718;51.980;5.734;2023-04-30T22:25:51;101684.63;;;8.56;100.00
48790;BME280;41718;51.980;5.734;2023-04-30T22:30:57;101681.31;;;8.58;100.00
48790;BME280;41718;51.980;5.734;2023-04-30T22:36:05;101674.06;;;8.48;100.00
48790;BME280;41718;51.980;5.734;2023-04-30T22:41:06;101678.84;;;8.39;100.00
48790;BME280;41718;51.980;5.734;2023-04-30T22:46:08;101675.63;;;8.44;100.00
48790;BME280;41718;51.980;5.734;2023-04-30T22:51:11;101665.53;;;8.28;100.00
48790;BME280;41718;51.980;5.734;2023-04-30T22:56:12;101671.25;;;8.19;100.00
48790;BME280;41718;51.980;5.734;2023-04-30T23:01:14;101674.00;;;8.02;100.00
48790;BME280;41718;51.980;5.734;2023-04-30T23:06:15;101673.00;;;7.98;100.00
48790;BME280;41718;51.980;5.734;2023-04-30T23:11:17;101671.25;;;7.97;100.00
48790;BME280;41718;51.980;5.734;2023-04-30T23:16:21;101667.75;;;7.74;100.00
48790;BME280;41718;51.980;5.734;2023-04-30T23:21:22;101665.31;;;7.77;100.00
48790;BME280;41718;51.980;5.734;2023-04-30T23:26:24;101672.63;;;7.66;100.00
48790;BME280;41718;51.980;5.734;2023-04-30T23:31:25;101662.13;;;7.62;100.00
48790;BME280;41718;51.980;5.734;2023-04-30T23:36:27;101661.75;;;7.53;100.00
48790;BME280;41718;51.980;5.734;2023-04-30T23:41:28;101666.31;;;7.37;100.00
48790;BME280;41718;51.980;5.734;2023-04-30T23:46:30;101651.97;;;7.44;100.00
48790;BME280;41718;51.980;5.734;2023-04-30T23:51:32;101649.53;;;7.26;100.00
48790;BME280;41718;51.980;5.734;2023-04-30T23:56:33;101639.34;;;7.29;100.00
